sensor_id;sensor_type;location;lat;lon;timestamp;temperature;humidity
35796;DHT22;21916;52.428;13.302;2023-08-08T00:00:26;13.70;99.90
35796;DHT22;21916;52.428;13.302;2023-08-08T00:02:52;13.70;99.90
35796;DHT22;21916;52.428;13.302;2023-08-08T00:05:19;13.70;99.90
35796;DHT22;21916;52.428;13.302;2023-08-08T00:07:45;13.60;99.90
35796;DHT22;21916;52.428;13.302;2023-08-08T00:10:10;13.60;99.90
35796;DHT22;21916;52.428;13.302;2023-08-08T00:12:36;13.60;99.90
35796;DHT22;21916;52.428;13.302;2023-08-08T00:15:02;13.50;99.90
35796;DHT22;21916;52.428;13.302;2023-08-08T00:17:27;13.50;99.90
35796;DHT22;21916;52.428;13.302;2023-08-08T00:19:53;13.50;99.90
35796;DHT22;21916;52.428;13.302;2023-08-08T00:22:19;13.50;99.90
35796;DHT22;21916;52.428;13.302;2023-08-08T00:24:44;13.40;99.90
35796;DHT22;21916;52.428;13.302;2023-08-08T00:27:10;13.50;99.90
35796;DHT22;21916;52.428;13.302;2023-08-08T00:29:36;13.40;99.90
35796;DHT22;21916;52.428;13.302;2023-08-08T00:32:02;13.40;99.90
35796;DHT22;21916;52.428;13.302;2023-08-08T00:34:28;13.40;99.90
35796;DHT22;21916;52.428;13.302;2023-08-08T00:36:54;13.30;99.90
35796;DHT22;21916;52.428;13.302;2023-08-08T00:39:19;13.30;99.90
35796;DHT22;21916;52.428;13.302;2023-08-08T00:41:45;13.30;99.90
35796;DHT22;21916;52.428;13.302;2023-08-08T00:44:11;13.30;99.90
35796;DHT22;21916;52.428;13.302;2023-08-08T00:46:37;13.30;99.90
35796;DHT22;21916;52.428;13.302;2023-08-08T00:49:02;13.20;99.90
35796;DHT22;21916;52.428;13.302;2023-08-08T00:51:28;13.20;99.90
35796;DHT22;21916;52.428;13.302;2023-08-08T00:53:54;13.20;99.90
35796;DHT22;21916;52.428;13.302;2023-08-08T00:56:21;13.10;99.90
35796;DHT22;21916;52.428;13.302;2023-08-08T00:58:47;13.20;99.90
35796;DHT22;21916;52.428;13.302;2023-08-08T01:01:17;13.10;99.90
35796;DHT22;21916;52.428;13.302;2023-08-08T01:03:43;13.10;99.90
35796;DHT22;21916;52.428;13.302;2023-08-08T01:06:22;13.10;99.90
35796;DHT22;21916;52.428;13.302;2023-08-08T01:08:58;13.10;99.90
35796;DHT22;21916;52.428;13.302;2023-08-08T01:11:25;13.10;99.90
35796;DHT22;21916;52.428;13.302;2023-08-08T01:13:54;13.00;99.90
35796;DHT22;21916;52.428;13.302;2023-08-08T01:16:20;13.00;99.90
35796;DHT22;21916;52.428;13.302;2023-08-08T01:18:47;13.00;99.90
35796;DHT22;21916;52.428;13.302;2023-08-08T01:21:15;13.00;99.90
35796;DHT22;21916;52.428;13.302;2023-08-08T01:23:53;13.00;99.90
35796;DHT22;21916;52.428;13.302;2023-08-08T01:26:21;12.90;99.90
35796;DHT22;21916;52.428;13.302;2023-08-08T01:28:47;13.00;99.90
35796;DHT22;21916;52.428;13.302;2023-08-08T01:31:13;12.90;99.90
35796;DHT22;21916;52.428;13.302;2023-08-08T01:33:40;12.90;99.90
35796;DHT22;21916;52.428;13.302;2023-08-08T01:36:12;13.00;99.90
35796;DHT22;21916;52.428;13.302;2023-08-08T01:38:44;12.90;99.90
35796;DHT22;21916;52.428;13.302;2023-08-08T01:41:13;12.90;99.90
35796;DHT22;21916;52.428;13.302;2023-08-08T01:43:39;12.80;99.90
35796;DHT22;21916;52.428;13.302;2023-08-08T01:46:07;12.80;99.90
35796;DHT22;21916;52.428;13.302;2023-08-08T01:48:33;12.80;99.90
35796;DHT22;21916;52.428;13.302;2023-08-08T01:50:59;12.80;99.90
35796;DHT22;21916;52.428;13.302;2023-08-08T01:53:25;12.80;99.90
35796;DHT22;21916;52.428;13.302;2023-08-08T01:55:50;12.80;99.90
35796;DHT22;21916;52.428;13.302;2023-08-08T01:58:18;12.80;99.90
35796;DHT22;21916;52.428;13.302;2023-08-08T02:00:43;12.80;99.90
35796;DHT22;21916;52.428;13.302;2023-08-08T02:03:11;12.80;99.90
35796;DHT22;21916;52.428;13.302;2023-08-08T02:05:37;12.80;99.90
35796;DHT22;21916;52.428;13.302;2023-08-08T02:08:02;12.80;99.90
35796;DHT22;21916;52.428;13.302;2023-08-08T02:10:30;12.80;99.90
35796;DHT22;21916;52.428;13.302;2023-08-08T02:12:55;12.80;99.90
35796;DHT22;21916;52.428;13.302;2023-08-08T02:15:21;12.70;99.90
35796;DHT22;21916;52.428;13.302;2023-08-08T02:17:47;12.70;99.90
35796;DHT22;21916;52.428;13.302;2023-08-08T02:20:13;12.70;99.90
35796;DHT22;21916;52.428;13.302;2023-08-08T02:22:39;12.70;99.90
35796;DHT22;21916;52.428;13.302;2023-08-08T02:25:05;12.70;99.90
35796;DHT22;21916;52.428;13.302;2023-08-08T02:27:31;12.70;99.90
35796;DHT22;21916;52.428;13.302;2023-08-08T02:29:57;12.80;99.90
35796;DHT22;21916;52.428;13.302;2023-08-08T02:32:23;12.70;99.90
35796;DHT22;21916;52.428;13.302;2023-08-08T02:34:49;12.70;99.90
35796;DHT22;21916;52.428;13.302;2023-08-08T02:37:15;12.70;99.90
35796;DHT22;21916;52.428;13.302;2023-08-08T02:39:43;12.70;99.90
35796;DHT22;21916;52.428;13.302;2023-08-08T02:42:09;12.70;99.90
35796;DHT22;21916;52.428;13.302;2023-08-08T02:44:36;12.70;99.90
35796;DHT22;21916;52.428;13.302;2023-08-08T02:47:02;12.70;99.90
35796;DHT22;21916;52.428;13.302;2023-08-08T02:49:28;12.70;99.90
35796;DHT22;21916;52.428;13.302;2023-08-08T02:51:55;12.70;99.90
35796;DHT22;21916;52.428;13.302;2023-08-08T02:54:23;12.70;99.90
35796;DHT22;21916;52.428;13.302;2023-08-08T02:56:49;12.70;99.90
35796;DHT22;21916;52.428;13.302;2023-08-08T02:59:16;12.60;99.90
35796;DHT22;21916;52.428;13.302;2023-08-08T03:01:43;12.60;99.90
35796;DHT22;21916;52.428;13.302;2023-08-08T03:04:15;12.70;99.90
35796;DHT22;21916;52.428;13.302;2023-08-08T03:06:41;12.70;99.90
35796;DHT22;21916;52.428;13.302;2023-08-08T03:09:07;12.70;99.90
35796;DHT22;21916;52.428;13.302;2023-08-08T03:11:36;12.70;99.90
35796;DHT22;21916;52.428;13.302;2023-08-08T03:14:03;12.60;99.90
35796;DHT22;21916;52.428;13.302;2023-08-08T03:16:31;12.60;99.90
35796;DHT22;21916;52.428;13.302;2023-08-08T03:18:57;12.60;99.90
35796;DHT22;21916;52.428;13.302;2023-08-08T03:21:23;12.60;99.90
35796;DHT22;21916;52.428;13.302;2023-08-08T03:23:49;12.60;99.90
35796;DHT22;21916;52.428;13.302;2023-08-08T03:26:15;12.60;99.90
35796;DHT22;21916;52.428;13.302;2023-08-08T03:28:43;12.60;99.90
35796;DHT22;21916;52.428;13.302;2023-08-08T03:31:09;12.60;99.90
35796;DHT22;21916;52.428;13.302;2023-08-08T03:33:35;12.50;99.90
35796;DHT22;21916;52.428;13.302;2023-08-08T03:36:03;12.50;99.90
35796;DHT22;21916;52.428;13.302;2023-08-08T03:38:28;12.50;99.90
35796;DHT22;21916;52.428;13.302;2023-08-08T03:40:54;12.50;99.90
35796;DHT22;21916;52.428;13.302;2023-08-08T03:43:22;12.60;99.90
35796;DHT22;21916;52.428;13.302;2023-08-08T03:45:47;12.50;99.90
35796;DHT22;21916;52.428;13.302;2023-08-08T03:48:14;12.60;99.90
35796;DHT22;21916;52.428;13.302;2023-08-08T03:50:40;12.60;99.90
35796;DHT22;21916;52.428;13.302;2023-08-08T03:53:06;12.60;99.90
35796;DHT22;21916;52.428;13.302;2023-08-08T03:55:32;12.60;99.90
35796;DHT22;21916;52.428;13.302;2023-08-08T03:57:58;12.60;99.90
35796;DHT22;21916;52.428;13.302;2023-08-08T04:00:24;12.70;99.90
35796;DHT22;21916;52.428;13.302;2023-08-08T04:02:50;12.70;99.90
35796;DHT22;21916;52.428;13.302;2023-08-08T04:05:17;12.70;99.90
35796;DHT22;21916;52.428;13.302;2023-08-08T04:07:43;12.70;99.90
35796;DHT22;21916;52.428;13.302;2023-08-08T04:10:09;12.80;99.90
35796;DHT22;21916;52.428;13.302;2023-08-08T04:12:35;12.90;99.90
35796;DHT22;21916;52.428;13.302;2023-08-08T04:15:00;12.90;99.90
35796;DHT22;21916;52.428;13.302;2023-08-08T04:17:26;13.00;99.90
35796;DHT22;21916;52.428;13.302;2023-08-08T04:19:52;13.00;99.90
35796;DHT22;21916;52.428;13.302;2023-08-08T04:22:18;13.00;99.90
35796;DHT22;21916;52.428;13.302;2023-08-08T04:24:43;13.00;99.90
35796;DHT22;21916;52.428;13.302;2023-08-08T04:27:09;13.10;99.90
35796;DHT22;21916;52.428;13.302;2023-08-08T04:29:36;13.10;99.90
35796;DHT22;21916;52.428;13.302;2023-08-08T04:32:03;13.10;99.90
35796;DHT22;21916;52.428;13.302;2023-08-08T04:34:30;13.10;99.90
35796;DHT22;21916;52.428;13.302;2023-08-08T04:36:55;13.10;99.90
35796;DHT22;21916;52.428;13.302;2023-08-08T04:39:21;13.10;99.90
35796;DHT22;21916;52.428;13.302;2023-08-08T04:41:48;13.10;99.90
35796;DHT22;21916;52.428;13.302;2023-08-08T04:44:13;13.10;99.90
35796;DHT22;21916;52.428;13.302;2023-08-08T04:46:39;13.20;99.90
35796;DHT22;21916;52.428;13.302;2023-08-08T04:49:05;13.20;99.90
35796;DHT22;21916;52.428;13.302;2023-08-08T04:51:31;13.30;99.90
35796;DHT22;21916;52.428;13.302;2023-08-08T04:53:57;13.30;99.90
35796;DHT22;21916;52.428;13.302;2023-08-08T04:56:22;13.30;99.90
35796;DHT22;21916;52.428;13.302;2023-08-08T04:58:48;13.30;99.90
35796;DHT22;21916;52.428;13.302;2023-08-08T05:01:14;13.40;99.90
35796;DHT22;21916;52.428;13.302;2023-08-08T05:03:43;13.40;99.90
35796;DHT22;21916;52.428;13.302;2023-08-08T05:06:08;13.40;99.90
35796;DHT22;21916;52.428;13.302;2023-08-08T05:08:34;13.50;99.90
35796;DHT22;21916;52.428;13.302;2023-08-08T05:11:00;13.50;99.90
35796;DHT22;21916;52.428;13.302;2023-08-08T05:13:26;13.50;99.90
35796;DHT22;21916;52.428;13.302;2023-08-08T05:15:51;13.60;99.90
35796;DHT22;21916;52.428;13.302;2023-08-08T05:18:17;13.70;99.90
35796;DHT22;21916;52.428;13.302;2023-08-08T05:20:43;13.70;99.90
35796;DHT22;21916;52.428;13.302;2023-08-08T05:23:09;13.70;99.90
35796;DHT22;21916;52.428;13.302;2023-08-08T05:25:36;13.80;99.90
35796;DHT22;21916;52.428;13.302;2023-08-08T05:28:02;13.80;99.90
35796;DHT22;21916;52.428;13.302;2023-08-08T05:30:28;13.90;99.90
35796;DHT22;21916;52.428;13.302;2023-08-08T05:32:53;14.10;99.90
35796;DHT22;21916;52.428;13.302;2023-08-08T05:35:19;14.10;99.90
35796;DHT22;21916;52.428;13.302;2023-08-08T05:37:45;14.20;99.90
35796;DHT22;21916;52.428;13.302;2023-08-08T05:40:11;14.30;99.90
35796;DHT22;21916;52.428;13.302;2023-08-08T05:42:38;14.30;99.90
35796;DHT22;21916;52.428;13.302;2023-08-08T05:45:04;14.40;99.90
35796;DHT22;21916;52.428;13.302;2023-08-08T05:47:30;14.40;99.90
35796;DHT22;21916;52.428;13.302;2023-08-08T05:49:56;14.40;99.90
35796;DHT22;21916;52.428;13.302;2023-08-08T05:52:21;14.50;99.90
35796;DHT22;21916;52.428;13.302;2023-08-08T05:54:48;14.40;99.90
35796;DHT22;21916;52.428;13.302;2023-08-08T05:57:13;14.50;99.90
35796;DHT22;21916;52.428;13.302;2023-08-08T05:59:39;14.60;99.90
35796;DHT22;21916;52.428;13.302;2023-08-08T06:02:05;14.60;99.90
35796;DHT22;21916;52.428;13.302;2023-08-08T06:04:31;14.70;99.90
35796;DHT22;21916;52.428;13.302;2023-08-08T06:06:57;14.70;99.90
35796;DHT22;21916;52.428;13.302;2023-08-08T06:09:22;14.70;99.90
35796;DHT22;21916;52.428;13.302;2023-08-08T06:11:48;14.70;99.90
35796;DHT22;21916;52.428;13.302;2023-08-08T06:14:14;14.70;99.90
35796;DHT22;21916;52.428;13.302;2023-08-08T06:16:40;14.70;99.90
35796;DHT22;21916;52.428;13.302;2023-08-08T06:19:05;14.70;99.90
35796;DHT22;21916;52.428;13.302;2023-08-08T06:21:31;14.70;99.90
35796;DHT22;21916;52.428;13.302;2023-08-08T06:23:57;14.80;99.90
35796;DHT22;21916;52.428;13.302;2023-08-08T06:26:23;14.80;99.90
35796;DHT22;21916;52.428;13.302;2023-08-08T06:28:49;14.90;99.90
35796;DHT22;21916;52.428;13.302;2023-08-08T06:31:17;14.90;99.90
35796;DHT22;21916;52.428;13.302;2023-08-08T06:33:43;14.90;99.90
35796;DHT22;21916;52.428;13.302;2023-08-08T06:36:09;14.90;99.90
35796;DHT22;21916;52.428;13.302;2023-08-08T06:38:35;14.80;99.90
35796;DHT22;21916;52.428;13.302;2023-08-08T06:41:19;14.90;99.90
35796;DHT22;21916;52.428;13.302;2023-08-08T06:44:04;14.90;99.90
35796;DHT22;21916;52.428;13.302;2023-08-08T06:46:48;14.80;99.90
35796;DHT22;21916;52.428;13.302;2023-08-08T06:49:14;14.80;99.90
35796;DHT22;21916;52.428;13.302;2023-08-08T06:51:39;14.90;99.90
35796;DHT22;21916;52.428;13.302;2023-08-08T06:54:05;14.80;99.90
35796;DHT22;21916;52.428;13.302;2023-08-08T06:56:31;14.90;99.90
35796;DHT22;21916;52.428;13.302;2023-08-08T06:58:57;15.00;99.90
35796;DHT22;21916;52.428;13.302;2023-08-08T07:01:23;15.00;99.90
35796;DHT22;21916;52.428;13.302;2023-08-08T07:03:48;15.10;99.90
35796;DHT22;21916;52.428;13.302;2023-08-08T07:06:17;15.10;99.90
35796;DHT22;21916;52.428;13.302;2023-08-08T07:08:43;15.30;99.90
35796;DHT22;21916;52.428;13.302;2023-08-08T07:11:09;15.50;99.90
35796;DHT22;21916;52.428;13.302;2023-08-08T07:13:35;15.70;99.90
35796;DHT22;21916;52.428;13.302;2023-08-08T07:16:00;16.00;99.90
35796;DHT22;21916;52.428;13.302;2023-08-08T07:18:26;16.10;99.90
35796;DHT22;21916;52.428;13.302;2023-08-08T07:20:52;16.20;99.90
35796;DHT22;21916;52.428;13.302;2023-08-08T07:23:18;16.00;99.90
35796;DHT22;21916;52.428;13.302;2023-08-08T07:25:45;16.00;99.90
35796;DHT22;21916;52.428;13.302;2023-08-08T07:28:12;16.00;99.90
35796;DHT22;21916;52.428;13.302;2023-08-08T07:30:40;16.00;99.90
35796;DHT22;21916;52.428;13.302;2023-08-08T07:33:06;16.10;99.90
35796;DHT22;21916;52.428;13.302;2023-08-08T07:35:35;16.10;99.90
35796;DHT22;21916;52.428;13.302;2023-08-08T07:38:01;16.00;99.90
35796;DHT22;21916;52.428;13.302;2023-08-08T07:40:27;16.00;99.90
35796;DHT22;21916;52.428;13.302;2023-08-08T07:42:53;16.20;99.90
35796;DHT22;21916;52.428;13.302;2023-08-08T07:45:18;16.10;99.90
35796;DHT22;21916;52.428;13.302;2023-08-08T07:47:44;16.30;99.90
35796;DHT22;21916;52.428;13.302;2023-08-08T07:50:10;16.20;99.90
35796;DHT22;21916;52.428;13.302;2023-08-08T07:52:37;16.20;99.90
35796;DHT22;21916;52.428;13.302;2023-08-08T07:55:03;16.20;99.90
35796;DHT22;21916;52.428;13.302;2023-08-08T07:57:30;16.40;99.90
35796;DHT22;21916;52.428;13.302;2023-08-08T07:59:56;16.50;99.90
35796;DHT22;21916;52.428;13.302;2023-08-08T08:02:22;16.70;99.90
35796;DHT22;21916;52.428;13.302;2023-08-08T08:04:48;16.90;99.90
35796;DHT22;21916;52.428;13.302;2023-08-08T08:07:13;17.00;99.90
35796;DHT22;21916;52.428;13.302;2023-08-08T08:09:39;17.00;99.90
35796;DHT22;21916;52.428;13.302;2023-08-08T08:12:08;17.00;99.90
35796;DHT22;21916;52.428;13.302;2023-08-08T08:14:34;16.90;99.90
35796;DHT22;21916;52.428;13.302;2023-08-08T08:17:00;16.90;99.90
35796;DHT22;21916;52.428;13.302;2023-08-08T08:19:26;16.90;99.90
35796;DHT22;21916;52.428;13.302;2023-08-08T08:21:51;17.00;99.90
35796;DHT22;21916;52.428;13.302;2023-08-08T08:24:17;17.10;99.90
35796;DHT22;21916;52.428;13.302;2023-08-08T08:26:43;17.20;99.90
35796;DHT22;21916;52.428;13.302;2023-08-08T08:29:08;17.20;99.90
35796;DHT22;21916;52.428;13.302;2023-08-08T08:31:34;17.30;99.90
35796;DHT22;21916;52.428;13.302;2023-08-08T08:34:00;17.40;99.90
35796;DHT22;21916;52.428;13.302;2023-08-08T08:36:25;17.60;99.90
35796;DHT22;21916;52.428;13.302;2023-08-08T08:38:52;17.40;99.90
35796;DHT22;21916;52.428;13.302;2023-08-08T08:41:20;17.50;99.90
35796;DHT22;21916;52.428;13.302;2023-08-08T08:43:49;17.40;99.90
35796;DHT22;21916;52.428;13.302;2023-08-08T08:46:20;17.30;99.90
35796;DHT22;21916;52.428;13.302;2023-08-08T08:48:46;17.40;99.90
35796;DHT22;21916;52.428;13.302;2023-08-08T08:51:12;17.50;99.90
35796;DHT22;21916;52.428;13.302;2023-08-08T08:53:39;17.60;99.90
35796;DHT22;21916;52.428;13.302;2023-08-08T08:56:08;17.60;99.90
35796;DHT22;21916;52.428;13.302;2023-08-08T08:58:34;17.40;99.90
35796;DHT22;21916;52.428;13.302;2023-08-08T09:01:00;17.40;99.90
35796;DHT22;21916;52.428;13.302;2023-08-08T09:03:26;17.60;99.90
35796;DHT22;21916;52.428;13.302;2023-08-08T09:05:53;17.60;99.90
35796;DHT22;21916;52.428;13.302;2023-08-08T09:08:20;17.40;99.90
35796;DHT22;21916;52.428;13.302;2023-08-08T09:10:46;17.50;99.90
35796;DHT22;21916;52.428;13.302;2023-08-08T09:13:11;17.70;99.90
35796;DHT22;21916;52.428;13.302;2023-08-08T09:15:37;17.60;99.90
35796;DHT22;21916;52.428;13.302;2023-08-08T09:18:03;17.70;99.90
35796;DHT22;21916;52.428;13.302;2023-08-08T09:20:29;17.90;99.90
35796;DHT22;21916;52.428;13.302;2023-08-08T09:22:55;18.00;99.90
35796;DHT22;21916;52.428;13.302;2023-08-08T09:25:22;18.30;99.90
35796;DHT22;21916;52.428;13.302;2023-08-08T09:27:47;18.30;99.90
35796;DHT22;21916;52.428;13.302;2023-08-08T09:30:13;18.30;99.90
35796;DHT22;21916;52.428;13.302;2023-08-08T09:32:40;18.20;99.90
35796;DHT22;21916;52.428;13.302;2023-08-08T09:35:09;18.10;99.90
35796;DHT22;21916;52.428;13.302;2023-08-08T09:37:35;18.30;99.90
35796;DHT22;21916;52.428;13.302;2023-08-08T09:40:02;18.60;99.90
35796;DHT22;21916;52.428;13.302;2023-08-08T09:42:29;18.70;99.90
35796;DHT22;21916;52.428;13.302;2023-08-08T09:44:57;18.70;99.90
35796;DHT22;21916;52.428;13.302;2023-08-08T09:47:23;18.90;99.90
35796;DHT22;21916;52.428;13.302;2023-08-08T09:49:50;18.70;99.90
35796;DHT22;21916;52.428;13.302;2023-08-08T09:52:17;18.50;99.90
35796;DHT22;21916;52.428;13.302;2023-08-08T09:54:44;18.50;99.90
35796;DHT22;21916;52.428;13.302;2023-08-08T09:57:10;18.40;99.90
35796;DHT22;21916;52.428;13.302;2023-08-08T09:59:37;18.50;99.90
35796;DHT22;21916;52.428;13.302;2023-08-08T10:02:04;18.40;99.90
35796;DHT22;21916;52.428;13.302;2023-08-08T10:04:30;18.30;99.90
35796;DHT22;21916;52.428;13.302;2023-08-08T10:06:58;18.20;99.90
35796;DHT22;21916;52.428;13.302;2023-08-08T10:09:24;18.20;99.90
35796;DHT22;21916;52.428;13.302;2023-08-08T10:11:51;18.40;99.90
35796;DHT22;21916;52.428;13.302;2023-08-08T10:14:17;18.50;99.90
35796;DHT22;21916;52.428;13.302;2023-08-08T10:16:43;18.90;99.90
35796;DHT22;21916;52.428;13.302;2023-08-08T10:19:11;19.10;99.90
35796;DHT22;21916;52.428;13.302;2023-08-08T10:21:43;19.30;99.90
35796;DHT22;21916;52.428;13.302;2023-08-08T10:24:09;19.50;99.90
35796;DHT22;21916;52.428;13.302;2023-08-08T10:29:18;19.80;99.90
35796;DHT22;21916;52.428;13.302;2023-08-08T10:31:53;19.70;99.90
35796;DHT22;21916;52.428;13.302;2023-08-08T10:34:20;19.60;99.90
35796;DHT22;21916;52.428;13.302;2023-08-08T10:36:50;19.10;99.90
35796;DHT22;21916;52.428;13.302;2023-08-08T10:39:20;19.00;99.90
35796;DHT22;21916;52.428;13.302;2023-08-08T10:41:48;18.90;99.90
35796;DHT22;21916;52.428;13.302;2023-08-08T10:44:22;18.80;99.90
35796;DHT22;21916;52.428;13.302;2023-08-08T10:46:49;18.80;99.90
35796;DHT22;21916;52.428;13.302;2023-08-08T10:49:17;18.70;99.90
35796;DHT22;21916;52.428;13.302;2023-08-08T10:51:44;18.40;99.90
35796;DHT22;21916;52.428;13.302;2023-08-08T10:54:17;18.20;99.90
35796;DHT22;21916;52.428;13.302;2023-08-08T10:56:52;18.20;99.90
35796;DHT22;21916;52.428;13.302;2023-08-08T10:59:24;18.30;99.90
35796;DHT22;21916;52.428;13.302;2023-08-08T11:01:51;18.80;99.90
35796;DHT22;21916;52.428;13.302;2023-08-08T11:04:22;19.40;99.90
35796;DHT22;21916;52.428;13.302;2023-08-08T11:06:55;20.40;99.90
35796;DHT22;21916;52.428;13.302;2023-08-08T11:09:22;20.60;99.90
35796;DHT22;21916;52.428;13.302;2023-08-08T11:11:47;21.20;99.90
35796;DHT22;21916;52.428;13.302;2023-08-08T11:14:16;20.80;99.90
35796;DHT22;21916;52.428;13.302;2023-08-08T11:16:44;21.20;99.90
35796;DHT22;21916;52.428;13.302;2023-08-08T11:19:10;22.20;99.90
35796;DHT22;21916;52.428;13.302;2023-08-08T11:21:41;21.50;99.90
35796;DHT22;21916;52.428;13.302;2023-08-08T11:24:08;20.70;99.90
35796;DHT22;21916;52.428;13.302;2023-08-08T11:26:35;19.80;99.90
35796;DHT22;21916;52.428;13.302;2023-08-08T11:29:02;18.10;99.90
35796;DHT22;21916;52.428;13.302;2023-08-08T11:31:29;16.40;99.90
35796;DHT22;21916;52.428;13.302;2023-08-08T11:33:55;15.40;99.90
35796;DHT22;21916;52.428;13.302;2023-08-08T11:36:22;15.00;99.90
35796;DHT22;21916;52.428;13.302;2023-08-08T11:38:52;14.70;99.90
35796;DHT22;21916;52.428;13.302;2023-08-08T11:41:23;14.60;99.90
35796;DHT22;21916;52.428;13.302;2023-08-08T11:43:50;14.70;99.90
35796;DHT22;21916;52.428;13.302;2023-08-08T11:46:17;14.70;99.90
35796;DHT22;21916;52.428;13.302;2023-08-08T11:48:46;15.20;99.90
35796;DHT22;21916;52.428;13.302;2023-08-08T11:51:14;16.60;99.90
35796;DHT22;21916;52.428;13.302;2023-08-08T11:53:51;18.30;99.90
35796;DHT22;21916;52.428;13.302;2023-08-08T11:56:19;19.40;99.90
35796;DHT22;21916;52.428;13.302;2023-08-08T11:58:49;20.30;99.90
35796;DHT22;21916;52.428;13.302;2023-08-08T12:01:16;21.10;99.90
35796;DHT22;21916;52.428;13.302;2023-08-08T12:03:46;22.10;99.90
35796;DHT22;21916;52.428;13.302;2023-08-08T12:06:13;22.20;99.90
35796;DHT22;21916;52.428;13.302;2023-08-08T12:08:43;22.80;99.90
35796;DHT22;21916;52.428;13.302;2023-08-08T12:11:14;22.70;99.90
35796;DHT22;21916;52.428;13.302;2023-08-08T12:13:44;21.40;99.90
35796;DHT22;21916;52.428;13.302;2023-08-08T12:16:11;21.90;99.90
35796;DHT22;21916;52.428;13.302;2023-08-08T12:18:39;22.50;99.90
35796;DHT22;21916;52.428;13.302;2023-08-08T12:21:06;23.40;99.90
35796;DHT22;21916;52.428;13.302;2023-08-08T12:23:32;23.30;99.90
35796;DHT22;21916;52.428;13.302;2023-08-08T12:25:59;21.90;99.90
35796;DHT22;21916;52.428;13.302;2023-08-08T12:28:26;20.50;99.90
35796;DHT22;21916;52.428;13.302;2023-08-08T12:30:53;19.10;99.90
35796;DHT22;21916;52.428;13.302;2023-08-08T12:33:19;17.80;99.90
35796;DHT22;21916;52.428;13.302;2023-08-08T12:35:45;17.00;99.90
35796;DHT22;21916;52.428;13.302;2023-08-08T12:38:11;17.00;99.90
35796;DHT22;21916;52.428;13.302;2023-08-08T12:40:37;18.10;99.90
35796;DHT22;21916;52.428;13.302;2023-08-08T12:43:03;19.10;99.90
35796;DHT22;21916;52.428;13.302;2023-08-08T12:45:28;20.20;99.90
35796;DHT22;21916;52.428;13.302;2023-08-08T12:47:54;21.20;99.90
35796;DHT22;21916;52.428;13.302;2023-08-08T12:50:20;21.80;99.90
35796;DHT22;21916;52.428;13.302;2023-08-08T12:52:45;22.70;99.90
35796;DHT22;21916;52.428;13.302;2023-08-08T12:55:11;23.00;99.90
35796;DHT22;21916;52.428;13.302;2023-08-08T12:57:37;23.90;99.90
35796;DHT22;21916;52.428;13.302;2023-08-08T13:00:04;24.30;99.90
35796;DHT22;21916;52.428;13.302;2023-08-08T13:02:33;24.50;99.90
35796;DHT22;21916;52.428;13.302;2023-08-08T13:04:59;24.30;99.90
35796;DHT22;21916;52.428;13.302;2023-08-08T13:07:25;23.50;99.90
35796;DHT22;21916;52.428;13.302;2023-08-08T13:09:51;22.80;99.90
35796;DHT22;21916;52.428;13.302;2023-08-08T13:12:17;22.10;99.90
35796;DHT22;21916;52.428;13.302;2023-08-08T13:14:43;22.20;99.90
35796;DHT22;21916;52.428;13.302;2023-08-08T13:17:08;22.80;99.90
35796;DHT22;21916;52.428;13.302;2023-08-08T13:19:35;24.10;99.90
35796;DHT22;21916;52.428;13.302;2023-08-08T13:22:01;25.10;99.80
35796;DHT22;21916;52.428;13.302;2023-08-08T13:24:27;25.80;98.50
35796;DHT22;21916;52.428;13.302;2023-08-08T13:26:52;24.50;98.30
35796;DHT22;21916;52.428;13.302;2023-08-08T13:29:18;24.30;98.40
35796;DHT22;21916;52.428;13.302;2023-08-08T13:31:44;23.00;98.30
35796;DHT22;21916;52.428;13.302;2023-08-08T13:34:10;22.10;99.80
35796;DHT22;21916;52.428;13.302;2023-08-08T13:36:36;21.50;99.90
35796;DHT22;21916;52.428;13.302;2023-08-08T13:39:02;20.60;99.90
35796;DHT22;21916;52.428;13.302;2023-08-08T13:41:28;19.40;99.90
35796;DHT22;21916;52.428;13.302;2023-08-08T13:43:54;18.60;99.90
35796;DHT22;21916;52.428;13.302;2023-08-08T13:46:22;17.80;99.90
35796;DHT22;21916;52.428;13.302;2023-08-08T13:48:47;17.20;99.90
35796;DHT22;21916;52.428;13.302;2023-08-08T13:51:13;16.90;99.90
35796;DHT22;21916;52.428;13.302;2023-08-08T13:53:39;16.70;99.90
35796;DHT22;21916;52.428;13.302;2023-08-08T13:56:05;16.60;99.90
35796;DHT22;21916;52.428;13.302;2023-08-08T13:58:31;16.60;99.90
35796;DHT22;21916;52.428;13.302;2023-08-08T14:00:57;16.70;99.90
35796;DHT22;21916;52.428;13.302;2023-08-08T14:03:24;16.90;99.90
35796;DHT22;21916;52.428;13.302;2023-08-08T14:05:50;17.40;99.90
35796;DHT22;21916;52.428;13.302;2023-08-08T14:08:19;18.00;99.90
35796;DHT22;21916;52.428;13.302;2023-08-08T14:10:46;19.10;99.90
35796;DHT22;21916;52.428;13.302;2023-08-08T14:13:11;20.10;99.90
35796;DHT22;21916;52.428;13.302;2023-08-08T14:15:38;20.70;99.90
35796;DHT22;21916;52.428;13.302;2023-08-08T14:18:06;20.30;99.90
35796;DHT22;21916;52.428;13.302;2023-08-08T14:20:32;21.10;99.90
35796;DHT22;21916;52.428;13.302;2023-08-08T14:22:58;22.60;98.10
35796;DHT22;21916;52.428;13.302;2023-08-08T14:25:24;24.10;96.60
35796;DHT22;21916;52.428;13.302;2023-08-08T14:27:50;25.20;94.60
35796;DHT22;21916;52.428;13.302;2023-08-08T14:30:16;25.50;93.30
35796;DHT22;21916;52.428;13.302;2023-08-08T14:32:42;25.20;93.20
35796;DHT22;21916;52.428;13.302;2023-08-08T14:35:08;25.10;92.70
35796;DHT22;21916;52.428;13.302;2023-08-08T14:37:35;25.30;92.60
35796;DHT22;21916;52.428;13.302;2023-08-08T14:40:02;25.60;92.10
35796;DHT22;21916;52.428;13.302;2023-08-08T14:42:28;26.40;91.70
35796;DHT22;21916;52.428;13.302;2023-08-08T14:44:54;26.60;90.40
35796;DHT22;21916;52.428;13.302;2023-08-08T14:47:20;26.40;90.70
35796;DHT22;21916;52.428;13.302;2023-08-08T14:49:46;26.60;90.40
35796;DHT22;21916;52.428;13.302;2023-08-08T14:52:13;26.70;90.30
35796;DHT22;21916;52.428;13.302;2023-08-08T14:54:39;26.60;90.60
35796;DHT22;21916;52.428;13.302;2023-08-08T14:57:05;24.90;90.90
35796;DHT22;21916;52.428;13.302;2023-08-08T14:59:31;23.50;92.70
35796;DHT22;21916;52.428;13.302;2023-08-08T15:01:57;22.60;94.10
35796;DHT22;21916;52.428;13.302;2023-08-08T15:04:22;22.10;95.30
35796;DHT22;21916;52.428;13.302;2023-08-08T15:06:48;21.30;95.80
35796;DHT22;21916;52.428;13.302;2023-08-08T15:09:14;21.10;96.20
35796;DHT22;21916;52.428;13.302;2023-08-08T15:11:40;21.00;96.60
35796;DHT22;21916;52.428;13.302;2023-08-08T15:14:06;21.30;97.10